Time;durP1;ratioP1;P1;durP2;ratioP2;P2;SDS_P1;SDS_P2;PMS_P1;PMS_P2;Temp;Humidity;BMP_temperature;BMP_pressure;BME280_temperature;BME280_humidity;BME280_pressure;Samples;Min_cycle;Max_cycle;Signal;HPM_P1;HPM_P2
2023/05/13 00:01:06;;;;;;;0.50;0.40;;;11.70;99.90;;;;;;5136145;27;20928;-82
2023/05/13 00:03:33;;;;;;;1.80;1.80;;;11.70;99.90;;;;;;5136313;27;20452;-81
2023/05/13 00:06:01;;;;;;;0.50;0.40;;;11.70;99.90;;;;;;5135996;27;20525;-80
2023/05/13 00:08:28;;;;;;;0.50;0.40;;;11.70;99.90;;;;;;5135944;27;20298;-81
2023/05/13 00:10:55;;;;;;;1.60;0.97;;;11.60;99.90;;;;;;5135861;27;20505;-78
2023/05/13 00:13:21;;;;;;;0.50;0.40;;;11.60;99.90;;;;;;5136114;27;20552;-81
2023/05/13 00:15:48;;;;;;;0.50;0.40;;;11.60;99.90;;;;;;5136181;27;20433;-80
2023/05/13 00:18:15;;;;;;;0.50;0.40;;;11.60;99.90;;;;;;5135506;27;20207;-80
2023/05/13 00:20:42;;;;;;;0.50;0.40;;;11.50;99.90;;;;;;5136448;27;20869;-80
2023/05/13 00:23:11;;;;;;;0.50;0.40;;;11.50;99.90;;;;;;5136025;27;20200;-81
2023/05/13 00:25:40;;;;;;;0.50;0.40;;;11.40;99.90;;;;;;5136167;27;20674;-78
2023/05/13 00:28:07;;;;;;;0.50;0.40;;;11.40;99.90;;;;;;5138419;27;20824;-81
2023/05/13 00:30:33;;;;;;;0.50;0.40;;;11.30;99.90;;;;;;5135482;27;20540;-81
2023/05/13 00:33:00;;;;;;;0.50;0.40;;;11.40;99.90;;;;;;5135609;27;20477;-82
2023/05/13 00:35:27;;;;;;;0.50;0.40;;;11.40;99.90;;;;;;5135635;27;20223;-81
2023/05/13 00:37:54;;;;;;;0.50;0.40;;;11.40;99.90;;;;;;5135218;27;20204;-80
2023/05/13 00:40:23;;;;;;;0.50;0.40;;;11.40;99.90;;;;;;5135503;27;20219;-81
2023/05/13 00:42:51;;;;;;;0.50;0.40;;;11.30;99.90;;;;;;5134963;27;20622;-80
2023/05/13 00:45:18;;;;;;;0.50;0.40;;;11.30;99.90;;;;;;5135895;27;20516;-79
2023/05/13 00:47:45;;;;;;;0.50;0.40;;;11.30;99.90;;;;;;5135331;27;20461;-81
2023/05/13 00:50:14;;;;;;;0.50;0.40;;;11.30;99.90;;;;;;5135732;27;20434;-80
2023/05/13 00:52:42;;;;;;;0.50;0.40;;;11.30;99.90;;;;;;5135596;27;20477;-81
2023/05/13 00:55:10;;;;;;;0.50;0.40;;;11.30;99.90;;;;;;5134723;27;20192;-82
2023/05/13 00:57:39;;;;;;;0.50;0.40;;;11.30;99.90;;;;;;5135017;27;20590;-81
2023/05/13 01:00:08;;;;;;;0.50;0.40;;;11.30;99.90;;;;;;5135131;27;20442;-81
2023/05/13 01:02:41;;;;;;;0.50;0.40;;;11.30;99.90;;;;;;5135280;27;20525;-81
2023/05/13 01:05:20;;;;;;;0.50;0.40;;;11.30;99.90;;;;;;5135700;27;20192;-81
2023/05/13 01:07:56;;;;;;;0.50;0.40;;;11.30;99.90;;;;;;5135037;27;20212;-80
2023/05/13 01:10:30;;;;;;;0.70;0.70;;;11.30;99.90;;;;;;5135929;27;20222;-81
2023/05/13 01:13:03;;;;;;;0.50;0.40;;;11.30;99.90;;;;;;5134672;27;20600;-80
2023/05/13 01:15:33;;;;;;;0.50;0.40;;;11.30;99.90;;;;;;5134738;27;20196;-81
2023/05/13 01:18:05;;;;;;;0.50;0.40;;;11.20;99.90;;;;;;5134221;27;20219;-82
2023/05/13 01:20:34;;;;;;;0.50;0.40;;;11.10;99.90;;;;;;5134849;27;20192;-81
2023/05/13 01:23:02;;;;;;;0.50;0.40;;;11.10;99.90;;;;;;5134577;27;20434;-81
2023/05/13 01:25:29;;;;;;;0.50;0.40;;;11.10;99.90;;;;;;5134936;27;20188;-81
2023/05/13 01:27:56;;;;;;;0.50;0.40;;;11.00;99.90;;;;;;5134941;27;20208;-81
2023/05/13 01:30:23;;;;;;;0.50;0.40;;;11.00;99.90;;;;;;5136349;27;20658;-82
2023/05/13 01:32:51;;;;;;;0.50;0.40;;;10.90;99.90;;;;;;5136160;27;20923;-81
2023/05/13 01:35:19;;;;;;;0.50;0.40;;;10.90;99.90;;;;;;5136093;27;20677;-81
2023/05/13 01:37:46;;;;;;;0.50;0.40;;;10.90;99.90;;;;;;5135514;27;20564;-80
2023/05/13 01:40:15;;;;;;;0.50;0.40;;;10.90;99.90;;;;;;5135624;27;20214;-79
2023/05/13 01:42:42;;;;;;;0.50;0.40;;;10.80;99.90;;;;;;5134566;27;20180;-79
2023/05/13 01:45:09;;;;;;;0.60;0.60;;;10.80;99.90;;;;;;5134279;27;20259;-81
2023/05/13 01:47:36;;;;;;;0.50;0.40;;;10.80;99.90;;;;;;5133735;27;20226;-81
2023/05/13 01:50:03;;;;;;;0.65;0.63;;;10.70;99.90;;;;;;5134656;27;20559;-80
2023/05/13 01:52:30;;;;;;;0.50;0.40;;;10.80;99.90;;;;;;5133926;28;20219;-82
2023/05/13 01:54:57;;;;;;;0.50;0.40;;;10.70;99.90;;;;;;5134627;28;20275;-81
2023/05/13 01:57:25;;;;;;;1.00;0.90;;;10.70;99.90;;;;;;5134365;27;20246;-80
2023/05/13 01:59:52;;;;;;;0.50;0.40;;;10.70;99.90;;;;;;5134123;28;20274;-80
2023/05/13 02:02:19;;;;;;;0.50;0.40;;;10.70;99.90;;;;;;5134013;27;20655;-80
2023/05/13 02:04:46;;;;;;;0.50;0.40;;;10.70;99.90;;;;;;5134504;28;20219;-81
2023/05/13 02:07:13;;;;;;;0.50;0.40;;;10.70;99.90;;;;;;5134017;28;20724;-81
2023/05/13 02:09:40;;;;;;;0.50;0.40;;;10.70;99.90;;;;;;5134541;27;20192;-80
2023/05/13 02:12:07;;;;;;;0.50;0.40;;;10.60;99.90;;;;;;5133886;27;20215;-80
2023/05/13 02:14:36;;;;;;;0.50;0.40;;;10.60;99.90;;;;;;5134204;27;20710;-81
2023/05/13 02:17:03;;;;;;;0.50;0.40;;;10.50;99.90;;;;;;5134480;27;20243;-81
2023/05/13 02:19:30;;;;;;;0.50;0.40;;;10.50;99.90;;;;;;5134319;27;20521;-81
2023/05/13 02:21:57;;;;;;;0.50;0.40;;;10.50;99.90;;;;;;5134288;28;20570;-81
2023/05/13 02:24:24;;;;;;;0.50;0.40;;;10.50;99.90;;;;;;5125862;28;20188;-81
2023/05/13 02:26:51;;;;;;;0.60;0.40;;;10.50;99.90;;;;;;5134031;28;20211;-80
2023/05/13 02:29:18;;;;;;;8.30;7.88;;;10.50;99.90;;;;;;5133974;27;20204;-81
2023/05/13 02:31:46;;;;;;;0.50;0.40;;;10.50;99.90;;;;;;5138282;27;20562;-81
2023/05/13 02:34:13;;;;;;;2.88;1.15;;;10.50;99.90;;;;;;5137842;27;20216;-79
2023/05/13 02:36:40;;;;;;;0.50;0.40;;;10.50;99.90;;;;;;5137815;27;20598;-81
2023/05/13 02:39:07;;;;;;;0.50;0.40;;;10.40;99.90;;;;;;5137514;27;20220;-81
2023/05/13 02:41:34;;;;;;;0.50;0.40;;;10.40;99.90;;;;;;5137633;27;20184;-80
2023/05/13 02:44:01;;;;;;;0.50;0.40;;;10.40;99.90;;;;;;5137749;27;20722;-81
2023/05/13 02:46:28;;;;;;;0.50;0.40;;;10.30;99.90;;;;;;5138210;27;20579;-81
2023/05/13 02:48:56;;;;;;;0.50;0.50;;;10.20;99.90;;;;;;5138115;27;20287;-79
2023/05/13 02:51:23;;;;;;;0.60;0.47;;;10.20;99.90;;;;;;5137797;27;20283;-79
2023/05/13 02:53:50;;;;;;;0.50;0.40;;;10.30;99.90;;;;;;5137736;27;20242;-79
2023/05/13 02:56:17;;;;;;;0.50;0.40;;;10.30;99.90;;;;;;5137787;27;20192;-80
2023/05/13 02:58:44;;;;;;;0.50;0.40;;;10.20;99.90;;;;;;5137906;27;20192;-80
2023/05/13 03:01:11;;;;;;;0.65;0.65;;;10.20;99.90;;;;;;5137480;27;20287;-81
2023/05/13 03:03:38;;;;;;;2.30;2.20;;;10.20;99.90;;;;;;5138008;27;20618;-81
2023/05/13 03:06:07;;;;;;;0.50;0.50;;;10.20;99.90;;;;;;5137520;27;20198;-80
2023/05/13 03:08:33;;;;;;;0.50;0.40;;;10.20;99.90;;;;;;5136906;27;20190;-81
2023/05/13 03:11:01;;;;;;;0.50;0.40;;;10.20;99.90;;;;;;5137061;27;20663;-79
2023/05/13 03:13:28;;;;;;;0.50;0.40;;;10.00;99.90;;;;;;5137562;27;20240;-81
2023/05/13 03:15:54;;;;;;;0.70;0.68;;;10.00;99.90;;;;;;5137233;27;20618;-81
2023/05/13 03:18:23;;;;;;;0.50;0.40;;;10.00;99.90;;;;;;5137459;27;20216;-80
2023/05/13 03:20:50;;;;;;;0.50;0.40;;;9.90;99.90;;;;;;5137462;27;20188;-80
2023/05/13 03:23:18;;;;;;;0.50;0.40;;;9.90;99.90;;;;;;5136951;27;20287;-77
2023/05/13 03:25:45;;;;;;;0.50;0.40;;;9.90;99.90;;;;;;5136948;27;20195;-81
2023/05/13 03:28:12;;;;;;;0.50;0.40;;;9.90;99.90;;;;;;5136508;27;20791;-80
2023/05/13 03:30:38;;;;;;;0.50;0.40;;;9.90;99.90;;;;;;5137376;27;20219;-81
2023/05/13 03:33:05;;;;;;;6.63;3.22;;;9.80;99.90;;;;;;5137054;27;20211;-81
2023/05/13 03:35:32;;;;;;;0.50;0.40;;;9.90;99.90;;;;;;5136925;27;20188;-81
2023/05/13 03:37:59;;;;;;;0.50;0.50;;;9.90;99.90;;;;;;5136662;27;20365;-81
2023/05/13 03:40:27;;;;;;;0.50;0.40;;;9.90;99.90;;;;;;5136858;27;20746;-82
2023/05/13 03:42:54;;;;;;;0.50;0.40;;;9.90;99.90;;;;;;5136196;27;20184;-82
2023/05/13 03:45:21;;;;;;;0.50;0.40;;;9.90;99.90;;;;;;5136508;27;20239;-78
2023/05/13 03:47:47;;;;;;;0.50;0.40;;;9.90;99.90;;;;;;5136241;27;20219;-82
2023/05/13 03:50:14;;;;;;;0.50;0.40;;;9.90;99.90;;;;;;5136321;27;20192;-80
2023/05/13 03:52:41;;;;;;;0.50;0.40;;;9.90;99.90;;;;;;5135859;27;20195;-81
2023/05/13 03:55:08;;;;;;;0.50;0.40;;;9.90;99.90;;;;;;5136107;27;20192;-80
2023/05/13 03:57:37;;;;;;;0.88;0.88;;;9.80;99.90;;;;;;5136296;27;20218;-80
2023/05/13 04:00:04;;;;;;;0.60;0.60;;;10.00;99.90;;;;;;5136259;27;20188;-80
2023/05/13 04:02:31;;;;;;;0.50;0.40;;;10.00;99.90;;;;;;5136026;27;20192;-82
2023/05/13 04:04:57;;;;;;;0.50;0.40;;;10.00;99.90;;;;;;5136645;27;20188;-82
2023/05/13 04:07:24;;;;;;;0.50;0.50;;;10.00;99.90;;;;;;5136131;27;20208;-82
2023/05/13 04:09:51;;;;;;;0.50;0.40;;;9.90;99.90;;;;;;5136425;27;20279;-83
2023/05/13 04:12:18;;;;;;;0.50;0.40;;;9.90;99.90;;;;;;5135862;27;20648;-81
2023/05/13 04:14:46;;;;;;;0.50;0.40;;;9.90;99.90;;;;;;5136221;27;20214;-82
2023/05/13 04:17:13;;;;;;;0.50;0.40;;;9.90;99.90;;;;;;5135789;27;20295;-82
2023/05/13 04:19:40;;;;;;;0.50;0.50;;;9.90;99.90;;;;;;5135808;27;20188;-82
2023/05/13 04:22:06;;;;;;;0.50;0.40;;;9.90;99.90;;;;;;5136110;27;20249;-82
2023/05/13 04:24:33;;;;;;;0.50;0.40;;;9.90;99.90;;;;;;5139802;27;20275;-80
2023/05/13 04:27:00;;;;;;;0.50;0.40;;;9.90;99.90;;;;;;5142079;27;20235;-82
2023/05/13 04:29:27;;;;;;;0.50;0.40;;;9.90;99.90;;;;;;5141331;27;20275;-79
2023/05/13 04:31:55;;;;;;;0.50;0.40;;;10.00;99.90;;;;;;5142584;27;20274;-79
2023/05/13 04:34:22;;;;;;;0.50;0.40;;;10.00;99.90;;;;;;5142119;27;20235;-79
2023/05/13 04:36:48;;;;;;;0.50;0.40;;;10.10;99.90;;;;;;5140984;27;20293;-82
2023/05/13 04:39:15;;;;;;;0.93;0.85;;;10.10;99.90;;;;;;5141781;27;20278;-80
2023/05/13 04:41:42;;;;;;;0.70;0.68;;;10.10;99.90;;;;;;5142570;27;20188;-80
2023/05/13 04:44:09;;;;;;;0.50;0.40;;;10.20;99.90;;;;;;5142106;27;20287;-82
2023/05/13 04:46:39;;;;;;;0.50;0.40;;;10.20;99.90;;;;;;5140191;27;20215;-82
2023/05/13 04:49:07;;;;;;;0.57;0.45;;;10.20;99.90;;;;;;5139961;27;20252;-80
2023/05/13 04:51:34;;;;;;;0.50;0.40;;;10.30;99.90;;;;;;5140056;27;20191;-80
2023/05/13 04:54:00;;;;;;;0.50;0.40;;;10.40;99.90;;;;;;5139235;27;20473;-81
2023/05/13 04:56:27;;;;;;;0.50;0.40;;;10.40;99.90;;;;;;5140327;27;20657;-80
2023/05/13 04:58:57;;;;;;;0.50;0.40;;;10.50;99.90;;;;;;5141307;27;20437;-80
2023/05/13 05:01:24;;;;;;;0.50;0.40;;;10.60;99.90;;;;;;5140148;27;20856;-81
2023/05/13 05:03:51;;;;;;;0.50;0.40;;;10.60;99.90;;;;;;5136285;27;20440;-82
2023/05/13 05:06:20;;;;;;;0.50;0.40;;;10.70;99.90;;;;;;5136205;27;20192;-82
2023/05/13 05:08:47;;;;;;;0.50;0.50;;;10.80;99.90;;;;;;5135370;27;20196;-82
2023/05/13 05:11:14;;;;;;;0.60;0.40;;;10.90;99.90;;;;;;5135123;27;20550;-79
2023/05/13 05:13:41;;;;;;;0.50;0.40;;;11.00;99.90;;;;;;5134834;27;20212;-82
2023/05/13 05:16:08;;;;;;;2.20;2.10;;;11.00;99.90;;;;;;5135384;27;20933;-80
2023/05/13 05:18:35;;;;;;;1.13;1.13;;;11.10;99.90;;;;;;5135411;27;20651;-82
2023/05/13 05:21:02;;;;;;;1.17;1.17;;;11.20;99.90;;;;;;5134794;27;20434;-82
2023/05/13 05:23:30;;;;;;;2.07;1.97;;;11.20;99.90;;;;;;5135181;27;20430;-82
2023/05/13 05:25:58;;;;;;;1.73;1.63;;;11.30;99.90;;;;;;5134740;27;20444;-81
2023/05/13 05:28:25;;;;;;;1.47;1.37;;;11.40;99.90;;;;;;5134729;27;20831;-81
2023/05/13 05:30:52;;;;;;;0.70;0.70;;;11.50;99.90;;;;;;5135822;27;20464;-82
2023/05/13 05:33:19;;;;;;;0.50;0.40;;;11.60;99.90;;;;;;5134905;27;20481;-79
2023/05/13 05:35:46;;;;;;;3.00;2.80;;;11.70;99.90;;;;;;5134928;27;20960;-81
2023/05/13 05:38:13;;;;;;;1.43;1.33;;;11.80;99.90;;;;;;5134921;27;20454;-80
2023/05/13 05:40:43;;;;;;;1.53;1.47;;;11.90;99.90;;;;;;5145252;27;20449;-80
2023/05/13 05:43:11;;;;;;;1.58;1.48;;;12.00;99.90;;;;;;5145720;27;20444;-81
2023/05/13 05:45:38;;;;;;;4.23;3.83;;;12.10;99.90;;;;;;5146349;27;20222;-79
2023/05/13 05:48:06;;;;;;;0.50;0.50;;;12.20;99.90;;;;;;5143565;27;20540;-82
2023/05/13 05:50:33;;;;;;;0.50;0.40;;;12.30;99.90;;;;;;5134623;27;20536;-82
2023/05/13 05:53:00;;;;;;;0.60;0.60;;;12.40;99.90;;;;;;5134355;28;20433;-82
2023/05/13 05:55:27;;;;;;;0.50;0.40;;;12.60;99.90;;;;;;5134383;27;20473;-82
2023/05/13 05:57:55;;;;;;;0.50;0.40;;;12.80;99.90;;;;;;5134834;28;20460;-82
2023/05/13 06:00:22;;;;;;;0.50;0.40;;;13.10;99.90;;;;;;5135359;28;20446;-82
2023/05/13 06:02:49;;;;;;;1.33;0.67;;;13.90;99.90;;;;;;5134314;27;20497;-82
2023/05/13 06:05:16;;;;;;;0.70;0.70;;;15.00;99.90;;;;;;5137506;27;20434;-82
2023/05/13 06:07:43;;;;;;;0.50;0.40;;;16.20;99.90;;;;;;5138876;27;20550;-83
2023/05/13 06:10:11;;;;;;;0.50;0.30;;;17.60;99.90;;;;;;5138958;27;20932;-82
2023/05/13 06:12:39;;;;;;;3.03;2.53;;;18.80;99.90;;;;;;5130264;27;20928;-82
2023/05/13 06:15:09;;;;;;;0.93;0.93;;;19.90;99.90;;;;;;5138460;27;20494;-83
2023/05/13 06:17:36;;;;;;;0.50;0.40;;;20.90;99.90;;;;;;5138008;27;20482;-82
2023/05/13 06:20:04;;;;;;;0.50;0.37;;;21.60;99.90;;;;;;5138497;27;20433;-82
2023/05/13 06:22:31;;;;;;;1.77;0.63;;;22.10;99.90;;;;;;5138045;27;21097;-78
2023/05/13 06:24:58;;;;;;;0.50;0.30;;;22.80;99.90;;;;;;5138573;27;20422;-83
2023/05/13 06:27:25;;;;;;;0.50;0.33;;;23.40;99.90;;;;;;5137349;27;20511;-83
2023/05/13 06:29:51;;;;;;;0.80;0.80;;;24.30;99.90;;;;;;5138380;27;20437;-80
2023/05/13 06:32:20;;;;;;;0.73;0.73;;;25.40;99.90;;;;;;5137853;27;20489;-78
2023/05/13 06:34:47;;;;;;;0.70;0.60;;;26.20;91.40;;;;;;5137965;27;20992;-80
2023/05/13 06:37:14;;;;;;;0.50;0.40;;;26.60;87.20;;;;;;5137521;27;20460;-83
2023/05/13 06:39:41;;;;;;;0.50;0.30;;;26.60;84.00;;;;;;5137436;27;20429;-81
2023/05/13 06:42:08;;;;;;;0.50;0.40;;;27.60;90.00;;;;;;5137724;27;20544;-79
2023/05/13 06:44:35;;;;;;;0.50;0.40;;;28.20;81.80;;;;;;5137636;27;20862;-79
2023/05/13 06:47:03;;;;;;;0.50;0.30;;;28.10;74.30;;;;;;5137806;27;20847;-82
2023/05/13 06:49:32;;;;;;;1.17;1.07;;;27.60;72.90;;;;;;5138068;27;20440;-82
2023/05/13 06:51:59;;;;;;;0.77;0.77;;;27.30;72.80;;;;;;5137871;27;20524;-83
2023/05/13 06:54:26;;;;;;;0.50;0.30;;;27.00;74.90;;;;;;5137624;27;20468;-82
2023/05/13 06:56:53;;;;;;;0.50;0.40;;;26.80;76.30;;;;;;5137735;27;20998;-80
2023/05/13 06:59:21;;;;;;;0.50;0.30;;;27.40;79.80;;;;;;5137508;27;20823;-81
2023/05/13 07:01:48;;;;;;;0.50;0.40;;;28.20;78.00;;;;;;5137365;27;20433;-80
2023/05/13 07:04:15;;;;;;;0.50;0.30;;;28.70;72.30;;;;;;5137432;27;20432;-80
2023/05/13 07:06:43;;;;;;;0.50;0.40;;;29.30;73.20;;;;;;5137186;27;20452;-80
2023/05/13 07:09:10;;;;;;;0.50;0.30;;;29.50;66.30;;;;;;5137382;27;20883;-81
2023/05/13 07:11:37;;;;;;;1.63;1.53;;;29.10;66.30;;;;;;5137115;27;20469;-83
2023/05/13 07:14:03;;;;;;;0.87;0.87;;;29.30;67.60;;;;;;5137206;27;20477;-81
2023/05/13 07:16:30;;;;;;;0.60;0.50;;;29.50;67.30;;;;;;5136292;27;20540;-80
2023/05/13 07:18:57;;;;;;;0.70;0.70;;;30.00;65.80;;;;;;5136906;27;20936;-81
2023/05/13 07:21:24;;;;;;;0.50;0.30;;;30.40;65.30;;;;;;5136827;27;20434;-80
2023/05/13 07:23:52;;;;;;;0.50;0.30;;;30.40;66.10;;;;;;5136547;27;20516;-80
2023/05/13 07:26:20;;;;;;;0.50;0.40;;;30.40;64.90;;;;;;5136607;27;20536;-80
2023/05/13 07:28:47;;;;;;;0.50;0.40;;;30.70;59.40;;;;;;5136724;27;20437;-80
2023/05/13 07:31:14;;;;;;;0.50;0.40;;;29.30;58.80;;;;;;5136530;27;20443;-80
2023/05/13 07:33:40;;;;;;;0.50;0.30;;;28.40;62.10;;;;;;5128189;27;20510;-83
2023/05/13 07:36:07;;;;;;;0.50;0.30;;;27.30;62.60;;;;;;5137028;27;20444;-83
2023/05/13 07:38:34;;;;;;;0.50;0.50;;;26.00;64.80;;;;;;5136735;27;20464;-83
2023/05/13 07:41:02;;;;;;;1.37;1.37;;;25.00;69.60;;;;;;5136782;27;20443;-82
2023/05/13 07:43:29;;;;;;;1.43;0.60;;;25.40;72.10;;;;;;5136578;27;20815;-82
2023/05/13 07:45:56;;;;;;;0.50;0.30;;;26.60;72.00;;;;;;5136367;27;20528;-81
2023/05/13 07:48:24;;;;;;;1.47;0.87;;;27.50;65.00;;;;;;5135948;27;20479;-79
2023/05/13 07:50:51;;;;;;;0.50;0.33;;;27.90;63.60;;;;;;5136326;27;20477;-83
2023/05/13 07:53:18;;;;;;;0.50;0.30;;;27.70;62.60;;;;;;5136308;27;20433;-80
2023/05/13 07:55:45;;;;;;;0.50;0.30;;;26.60;62.80;;;;;;5136073;27;21017;-83
2023/05/13 07:58:13;;;;;;;1.70;0.60;;;26.40;70.50;;;;;;5136175;27;20464;-78
2023/05/13 08:00:40;;;;;;;1.20;1.10;;;27.10;67.00;;;;;;5135849;27;20525;-83
2023/05/13 08:03:07;;;;;;;0.50;0.30;;;28.30;69.20;;;;;;5136276;27;20434;-82
2023/05/13 08:05:34;;;;;;;0.60;0.57;;;29.20;64.20;;;;;;5136469;27;20473;-83
2023/05/13 08:08:01;;;;;;;0.50;0.30;;;29.80;60.00;;;;;;5136455;27;20540;-82
2023/05/13 08:10:28;;;;;;;1.43;1.27;;;30.60;58.60;;;;;;5135904;27;20812;-83
2023/05/13 08:12:56;;;;;;;0.50;0.30;;;31.60;62.10;;;;;;5135738;27;20858;-81
2023/05/13 08:15:25;;;;;;;0.50;0.30;;;32.60;59.40;;;;;;5135394;27;20526;-77
2023/05/13 08:17:53;;;;;;;0.50;0.30;;;33.20;57.80;;;;;;5135803;27;20460;-81
2023/05/13 08:20:21;;;;;;;4.87;4.63;;;34.20;58.00;;;;;;5135924;27;20460;-79
2023/05/13 08:22:48;;;;;;;0.60;0.50;;;34.80;58.00;;;;;;5135395;27;20440;-82
2023/05/13 08:25:15;;;;;;;0.50;0.30;;;35.40;55.00;;;;;;5135250;27;20426;-79
2023/05/13 08:27:42;;;;;;;0.40;0.30;;;35.20;53.00;;;;;;5134180;27;20457;-80
2023/05/13 08:30:09;;;;;;;0.40;0.30;;;35.50;52.90;;;;;;5135169;27;20521;-81
2023/05/13 08:32:38;;;;;;;0.47;0.30;;;36.20;51.80;;;;;;5101296;22;20891;-76
2023/05/13 08:35:05;;;;;;;0.90;0.53;;;36.00;49.20;;;;;;5042089;28;20495;-76
2023/05/13 08:37:32;;;;;;;0.50;0.50;;;36.00;50.20;;;;;;5035568;28;20529;-75
2023/05/13 08:40:01;;;;;;;0.60;0.53;;;36.30;48.00;;;;;;5032412;28;20449;-77
2023/05/13 08:42:31;;;;;;;0.40;0.30;;;35.60;51.40;;;;;;5043195;28;20477;-76
2023/05/13 08:44:58;;;;;;;1.33;1.23;;;35.70;51.70;;;;;;5052191;28;20821;-76
2023/05/13 08:47:37;;;;;;;0.40;0.30;;;35.50;50.90;;;;;;5051544;28;20444;-76
2023/05/13 08:50:06;;;;;;;0.40;0.30;;;35.10;51.00;;;;;;5051776;28;20455;-76
2023/05/13 08:52:33;;;;;;;0.70;0.70;;;35.90;50.50;;;;;;5051520;28;20587;-76
2023/05/13 08:55:01;;;;;;;0.50;0.40;;;36.60;52.80;;;;;;5051557;28;20473;-76
2023/05/13 08:57:28;;;;;;;0.83;0.83;;;36.80;47.40;;;;;;5051754;28;20538;-76
2023/05/13 08:59:54;;;;;;;0.40;0.30;;;36.70;50.80;;;;;;5051489;28;21003;-76
2023/05/13 09:02:22;;;;;;;0.40;0.30;;;37.00;49.00;;;;;;5051198;28;20496;-76
2023/05/13 09:04:54;;;;;;;0.63;0.63;;;36.80;47.70;;;;;;5051306;28;20529;-76
2023/05/13 09:07:22;;;;;;;0.50;0.40;;;36.20;47.90;;;;;;5051426;28;20464;-77
2023/05/13 09:09:49;;;;;;;0.50;0.40;;;36.30;49.40;;;;;;5043507;28;20964;-77
2023/05/13 09:12:47;;;;;;;0.40;0.30;;;36.60;49.70;;;;;;5051324;28;20472;-76
2023/05/13 09:15:15;;;;;;;0.40;0.30;;;36.60;48.50;;;;;;5046784;28;20483;-77
2023/05/13 09:17:44;;;;;;;0.40;0.30;;;36.70;47.70;;;;;;5051040;28;20473;-76
2023/05/13 09:20:13;;;;;;;0.50;0.40;;;35.20;49.10;;;;;;5051546;28;20852;-76
2023/05/13 09:22:48;;;;;;;0.47;0.40;;;35.20;50.70;;;;;;5050925;28;20461;-76
2023/05/13 09:25:16;;;;;;;0.40;0.30;;;35.90;49.50;;;;;;5050925;28;20462;-76
2023/05/13 09:27:46;;;;;;;0.40;0.30;;;35.90;49.90;;;;;;5051060;28;20536;-77
2023/05/13 09:30:14;;;;;;;1.17;0.73;;;36.30;48.60;;;;;;5051093;28;20545;-77
2023/05/13 09:32:41;;;;;;;0.40;0.30;;;36.60;49.30;;;;;;5050624;28;20902;-76
2023/05/13 09:35:10;;;;;;;0.40;0.30;;;36.90;46.50;;;;;;5050915;28;20491;-77
2023/05/13 09:37:37;;;;;;;0.40;0.30;;;36.90;44.00;;;;;;5050809;28;20892;-76
2023/05/13 09:40:10;;;;;;;0.50;0.50;;;36.80;45.10;;;;;;5050577;28;20951;-76
2023/05/13 09:42:41;;;;;;;0.40;0.40;;;36.40;46.70;;;;;;5050704;28;20469;-76
2023/05/13 09:45:09;;;;;;;0.40;0.30;;;37.00;47.70;;;;;;5051170;28;20452;-76
2023/05/13 09:47:36;;;;;;;0.40;0.30;;;37.00;45.40;;;;;;5050669;28;20528;-76
2023/05/13 09:50:06;;;;;;;0.40;0.30;;;36.20;46.20;;;;;;5050899;28;20465;-77
2023/05/13 09:52:34;;;;;;;0.47;0.40;;;36.20;44.60;;;;;;5050291;28;20587;-76
2023/05/13 09:55:03;;;;;;;0.93;0.40;;;35.90;46.60;;;;;;5051015;28;20833;-76
2023/05/13 09:57:32;;;;;;;0.67;0.67;;;36.20;47.40;;;;;;5050860;28;20449;-76
2023/05/13 09:59:59;;;;;;;0.73;0.53;;;35.20;45.40;;;;;;5050762;28;20456;-76
2023/05/13 10:02:27;;;;;;;0.50;0.40;;;35.00;44.60;;;;;;5050099;28;20994;-75
2023/05/13 10:04:55;;;;;;;0.53;0.50;;;35.40;48.30;;;;;;5050468;28;20446;-76
2023/05/13 10:07:24;;;;;;;0.47;0.30;;;36.20;47.00;;;;;;5050880;28;20445;-76
2023/05/13 10:09:54;;;;;;;0.40;0.30;;;36.30;46.60;;;;;;5042630;28;20996;-77
2023/05/13 10:12:23;;;;;;;0.50;0.50;;;36.00;45.40;;;;;;5050557;28;20461;-76
2023/05/13 10:14:52;;;;;;;0.50;0.50;;;35.90;45.20;;;;;;5050131;28;20479;-77
2023/05/13 10:17:20;;;;;;;0.40;0.30;;;36.40;46.00;;;;;;5050396;28;20874;-76
2023/05/13 10:19:49;;;;;;;0.60;0.50;;;37.40;45.20;;;;;;5050527;28;20433;-76
2023/05/13 10:22:20;;;;;;;0.50;0.30;;;36.90;43.30;;;;;;5050391;28;20468;-76
2023/05/13 10:24:48;;;;;;;1.00;1.00;;;36.70;44.00;;;;;;5050391;28;20445;-76
2023/05/13 10:27:15;;;;;;;0.40;0.30;;;36.60;44.80;;;;;;5050087;28;20445;-77
2023/05/13 10:29:43;;;;;;;0.97;0.57;;;36.90;43.20;;;;;;5050218;28;20940;-76
2023/05/13 10:32:12;;;;;;;0.40;0.30;;;36.30;45.20;;;;;;5050200;28;20843;-76
2023/05/13 10:34:41;;;;;;;0.40;0.30;;;35.30;44.50;;;;;;5050015;28;20444;-75
2023/05/13 10:37:30;;;;;;;0.50;0.30;;;35.60;47.60;;;;;;5050348;28;20544;-75
2023/05/13 10:40:32;;;;;;;1.33;0.57;;;35.70;45.90;;;;;;5050477;28;20823;-75
2023/05/13 10:43:11;;;;;;;0.90;0.57;;;35.60;43.10;;;;;;5005490;28;20500;-76
2023/05/13 10:45:38;;;;;;;0.40;0.30;;;34.40;47.50;;;;;;5050061;28;20441;-75
2023/05/13 10:48:08;;;;;;;0.50;0.30;;;34.20;46.60;;;;;;5050155;28;20879;-76
2023/05/13 10:50:37;;;;;;;0.47;0.30;;;34.30;48.40;;;;;;5050334;28;20471;-76
2023/05/13 10:53:09;;;;;;;0.50;0.30;;;34.50;48.10;;;;;;5053849;28;20967;-76
2023/05/13 10:55:43;;;;;;;0.60;0.60;;;35.20;49.60;;;;;;5053647;28;20484;-75
2023/05/13 10:58:12;;;;;;;0.40;0.30;;;35.50;46.00;;;;;;5053779;28;20437;-76
2023/05/13 11:00:40;;;;;;;0.40;0.30;;;35.20;45.10;;;;;;5053386;28;20443;-75
2023/05/13 11:03:14;;;;;;;0.40;0.30;;;35.80;47.40;;;;;;5053633;28;20557;-75
2023/05/13 11:05:43;;;;;;;0.40;0.30;;;35.80;45.00;;;;;;5053560;28;20441;-76
2023/05/13 11:08:10;;;;;;;25.93;1.90;;;35.90;48.00;;;;;;5053678;28;20909;-76
2023/05/13 11:10:37;;;;;;;0.60;0.50;;;35.40;45.80;;;;;;5053384;28;20963;-76
2023/05/13 11:13:20;;;;;;;0.53;0.50;;;35.10;44.50;;;;;;5053438;28;20501;-76
2023/05/13 11:15:50;;;;;;;0.50;0.50;;;35.20;46.30;;;;;;5053550;28;20476;-76
2023/05/13 11:18:19;;;;;;;2.83;1.13;;;34.00;44.80;;;;;;5053608;28;20445;-75
2023/05/13 11:20:46;;;;;;;0.53;0.53;;;33.90;47.60;;;;;;5053223;28;20449;-75
2023/05/13 11:23:18;;;;;;;0.50;0.40;;;34.00;45.00;;;;;;5053084;28;20530;-76
2023/05/13 11:25:45;;;;;;;0.50;0.40;;;34.20;47.50;;;;;;5052894;28;20524;-76
2023/05/13 11:28:17;;;;;;;0.40;0.30;;;34.90;47.50;;;;;;5053433;28;20452;-77
2023/05/13 11:30:53;;;;;;;0.50;0.37;;;34.90;44.30;;;;;;5053135;28;20472;-76
2023/05/13 11:33:22;;;;;;;0.40;0.30;;;34.80;48.00;;;;;;5053032;28;20476;-75
2023/05/13 11:35:55;;;;;;;0.73;0.73;;;35.20;45.30;;;;;;5052879;28;20506;-75
2023/05/13 11:38:24;;;;;;;3.70;0.97;;;35.40;45.00;;;;;;5053445;28;20936;-76
2023/05/13 11:40:51;;;;;;;0.47;0.30;;;34.80;42.40;;;;;;5053268;28;20449;-75
2023/05/13 11:43:21;;;;;;;0.50;0.30;;;34.40;45.00;;;;;;5053300;28;20964;-75
2023/05/13 11:45:48;;;;;;;0.43;0.30;;;34.00;43.50;;;;;;5052721;28;20471;-76
2023/05/13 11:48:20;;;;;;;0.50;0.40;;;34.40;43.90;;;;;;5052929;28;20521;-76
2023/05/13 11:50:50;;;;;;;0.40;0.40;;;34.90;44.70;;;;;;5052947;28;20838;-76
2023/05/13 11:53:21;;;;;;;0.40;0.30;;;35.10;44.80;;;;;;5053202;28;20879;-76
2023/05/13 11:55:48;;;;;;;0.60;0.50;;;34.30;42.70;;;;;;5052858;28;20883;-76
2023/05/13 11:58:15;;;;;;;0.40;0.30;;;34.30;43.50;;;;;;5052872;28;20449;-77
2023/05/13 12:00:42;;;;;;;0.67;0.53;;;34.30;46.00;;;;;;5052974;28;20536;-77
2023/05/13 12:03:11;;;;;;;0.70;0.50;;;33.50;43.40;;;;;;5052558;28;21052;-78
2023/05/13 12:05:38;;;;;;;0.50;0.30;;;31.10;44.30;;;;;;5052734;28;20469;-77
2023/05/13 12:08:08;;;;;;;0.50;0.30;;;31.50;46.70;;;;;;5053399;28;20476;-77
2023/05/13 12:10:35;;;;;;;0.50;0.30;;;31.80;46.30;;;;;;5054216;28;20839;-78
2023/05/13 12:13:02;;;;;;;0.50;0.30;;;31.50;45.20;;;;;;5053405;28;21053;-78
2023/05/13 12:15:30;;;;;;;0.63;0.63;;;31.20;45.30;;;;;;5052928;28;20481;-78
2023/05/13 12:17:58;;;;;;;0.50;0.37;;;31.50;46.60;;;;;;5052296;28;20449;-78
2023/05/13 12:20:25;;;;;;;0.50;0.30;;;32.10;45.00;;;;;;5052796;28;20893;-77
2023/05/13 12:22:55;;;;;;;0.60;0.30;;;31.50;45.50;;;;;;5052331;28;20473;-78
2023/05/13 12:25:44;;;;;;;0.50;0.30;;;31.50;45.00;;;;;;5052532;28;20498;-77
2023/05/13 12:28:15;;;;;;;0.80;0.57;;;32.20;47.00;;;;;;5046974;28;20492;-78
2023/05/13 12:30:43;;;;;;;0.80;0.80;;;33.20;44.50;;;;;;5052337;28;20445;-77
2023/05/13 12:33:14;;;;;;;0.50;0.30;;;33.50;43.70;;;;;;5052407;28;20471;-77
2023/05/13 12:35:42;;;;;;;0.50;0.30;;;33.80;46.30;;;;;;5052325;28;20499;-79
2023/05/13 12:38:13;;;;;;;0.50;0.40;;;34.30;43.30;;;;;;5052625;28;20440;-77
2023/05/13 12:40:41;;;;;;;0.50;0.30;;;34.10;42.30;;;;;;5052053;28;20544;-76
2023/05/13 12:43:11;;;;;;;0.50;0.40;;;34.20;43.00;;;;;;5051781;28;20956;-78
2023/05/13 12:45:39;;;;;;;1.63;1.53;;;34.60;43.40;;;;;;5052201;28;20445;-77
2023/05/13 12:48:05;;;;;;;0.77;0.50;;;34.70;43.10;;;;;;5052299;28;20445;-77
2023/05/13 12:50:32;;;;;;;0.50;0.30;;;33.80;42.00;;;;;;5052449;28;20480;-77
2023/05/13 12:53:00;;;;;;;0.50;0.40;;;32.90;43.30;;;;;;5052031;28;20957;-77